sensor_id;sensor_type;location;lat;lon;timestamp;P1;durP1;ratioP1;P2;durP2;ratioP2
52432;SDS011;38352;53.244;6.594;2023-04-24T00:01:53;17.13;;;9.52;;
52432;SDS011;38352;53.244;6.594;2023-04-24T00:04:20;15.70;;;10.10;;
52432;SDS011;38352;53.244;6.594;2023-04-24T00:06:46;16.63;;;9.98;;
52432;SDS011;38352;53.244;6.594;2023-04-24T00:09:14;15.30;;;10.57;;
52432;SDS011;38352;53.244;6.594;2023-04-24T00:11:41;14.82;;;10.85;;
52432;SDS011;38352;53.244;6.594;2023-04-24T00:14:07;15.40;;;9.82;;
52432;SDS011;38352;53.244;6.594;2023-04-24T00:16:33;15.57;;;10.65;;
52432;SDS011;38352;53.244;6.594;2023-04-24T00:18:59;20.00;;;11.60;;
52432;SDS011;38352;53.244;6.594;2023-04-24T00:21:25;17.23;;;10.45;;
52432;SDS011;38352;53.244;6.594;2023-04-24T00:23:52;15.15;;;9.02;;
52432;SDS011;38352;53.244;6.594;2023-04-24T00:26:18;10.45;;;7.68;;
52432;SDS011;38352;53.244;6.594;2023-04-24T00:28:44;12.10;;;8.65;;
52432;SDS011;38352;53.244;6.594;2023-04-24T00:31:10;11.50;;;7.95;;
52432;SDS011;38352;53.244;6.594;2023-04-24T00:33:36;11.50;;;8.25;;
52432;SDS011;38352;53.244;6.594;2023-04-24T00:36:02;13.82;;;8.15;;
52432;SDS011;38352;53.244;6.594;2023-04-24T00:38:28;12.70;;;8.43;;
52432;SDS011;38352;53.244;6.594;2023-04-24T00:40:55;10.65;;;7.15;;
52432;SDS011;38352;53.244;6.594;2023-04-24T00:43:21;9.00;;;5.65;;
52432;SDS011;38352;53.244;6.594;2023-04-24T00:45:47;6.97;;;4.13;;
52432;SDS011;38352;53.244;6.594;2023-04-24T00:48:13;4.68;;;2.90;;
52432;SDS011;38352;53.244;6.594;2023-04-24T00:50:40;7.00;;;3.70;;
52432;SDS011;38352;53.244;6.594;2023-04-24T00:53:06;5.63;;;2.88;;
52432;SDS011;38352;53.244;6.594;2023-04-24T00:55:32;4.40;;;2.63;;
52432;SDS011;38352;53.244;6.594;2023-04-24T00:57:58;4.95;;;2.55;;
52432;SDS011;38352;53.244;6.594;2023-04-24T01:00:24;3.88;;;2.33;;
52432;SDS011;38352;53.244;6.594;2023-04-24T01:02:51;4.25;;;2.40;;
52432;SDS011;38352;53.244;6.594;2023-04-24T01:05:18;3.90;;;2.45;;
52432;SDS011;38352;53.244;6.594;2023-04-24T01:07:44;5.07;;;2.60;;
52432;SDS011;38352;53.244;6.594;2023-04-24T01:10:12;4.32;;;2.22;;
52432;SDS011;38352;53.244;6.594;2023-04-24T01:12:39;3.47;;;2.08;;
52432;SDS011;38352;53.244;6.594;2023-04-24T01:15:05;4.13;;;2.05;;
52432;SDS011;38352;53.244;6.594;2023-04-24T01:17:32;2.75;;;1.75;;
52432;SDS011;38352;53.244;6.594;2023-04-24T01:19:59;3.75;;;2.00;;
52432;SDS011;38352;53.244;6.594;2023-04-24T01:22:26;5.10;;;2.28;;
52432;SDS011;38352;53.244;6.594;2023-04-24T01:24:52;4.57;;;2.10;;
52432;SDS011;38352;53.244;6.594;2023-04-24T01:27:21;3.30;;;2.03;;
52432;SDS011;38352;53.244;6.594;2023-04-24T01:29:47;3.53;;;1.95;;
52432;SDS011;38352;53.244;6.594;2023-04-24T01:32:14;3.40;;;2.03;;
52432;SDS011;38352;53.244;6.594;2023-04-24T01:34:40;3.42;;;2.08;;
52432;SDS011;38352;53.244;6.594;2023-04-24T01:37:06;3.80;;;1.85;;
52432;SDS011;38352;53.244;6.594;2023-04-24T01:39:32;5.22;;;2.20;;
52432;SDS011;38352;53.244;6.594;2023-04-24T01:41:59;4.15;;;2.05;;
52432;SDS011;38352;53.244;6.594;2023-04-24T01:44:26;3.92;;;2.20;;
52432;SDS011;38352;53.244;6.594;2023-04-24T01:46:53;5.70;;;2.13;;
52432;SDS011;38352;53.244;6.594;2023-04-24T01:49:20;3.92;;;2.50;;
52432;SDS011;38352;53.244;6.594;2023-04-24T01:51:46;4.20;;;2.58;;
52432;SDS011;38352;53.244;6.594;2023-04-24T01:54:12;4.18;;;2.42;;
52432;SDS011;38352;53.244;6.594;2023-04-24T01:56:40;5.25;;;2.30;;
52432;SDS011;38352;53.244;6.594;2023-04-24T01:59:07;4.78;;;2.80;;
52432;SDS011;38352;53.244;6.594;2023-04-24T02:01:35;5.30;;;2.83;;
52432;SDS011;38352;53.244;6.594;2023-04-24T02:04:02;5.60;;;2.92;;
52432;SDS011;38352;53.244;6.594;2023-04-24T02:06:28;5.18;;;3.47;;
52432;SDS011;38352;53.244;6.594;2023-04-24T02:08:56;4.55;;;2.90;;
52432;SDS011;38352;53.244;6.594;2023-04-24T02:11:22;5.80;;;3.22;;
52432;SDS011;38352;53.244;6.594;2023-04-24T02:13:48;5.15;;;3.25;;
52432;SDS011;38352;53.244;6.594;2023-04-24T02:16:15;5.28;;;3.50;;
52432;SDS011;38352;53.244;6.594;2023-04-24T02:18:41;7.07;;;3.50;;
52432;SDS011;38352;53.244;6.594;2023-04-24T02:21:07;5.65;;;3.70;;
52432;SDS011;38352;53.244;6.594;2023-04-24T02:23:33;6.93;;;4.43;;
52432;SDS011;38352;53.244;6.594;2023-04-24T02:26:00;7.45;;;4.38;;
52432;SDS011;38352;53.244;6.594;2023-04-24T02:28:26;7.30;;;4.22;;
52432;SDS011;38352;53.244;6.594;2023-04-24T02:30:52;6.43;;;4.10;;
52432;SDS011;38352;53.244;6.594;2023-04-24T02:33:18;8.38;;;4.63;;
52432;SDS011;38352;53.244;6.594;2023-04-24T02:35:44;7.78;;;4.25;;
52432;SDS011;38352;53.244;6.594;2023-04-24T02:38:10;7.10;;;4.78;;
52432;SDS011;38352;53.244;6.594;2023-04-24T02:40:36;8.13;;;5.38;;
52432;SDS011;38352;53.244;6.594;2023-04-24T02:43:02;7.47;;;4.68;;
52432;SDS011;38352;53.244;6.594;2023-04-24T02:45:28;8.20;;;5.47;;
52432;SDS011;38352;53.244;6.594;2023-04-24T02:47:54;8.82;;;5.68;;
52432;SDS011;38352;53.244;6.594;2023-04-24T02:50:21;9.05;;;5.50;;
52432;SDS011;38352;53.244;6.594;2023-04-24T02:52:47;8.82;;;5.72;;
52432;SDS011;38352;53.244;6.594;2023-04-24T02:55:13;8.85;;;5.95;;
52432;SDS011;38352;53.244;6.594;2023-04-24T02:57:39;7.82;;;5.50;;
52432;SDS011;38352;53.244;6.594;2023-04-24T03:00:05;8.75;;;5.85;;
52432;SDS011;38352;53.244;6.594;2023-04-24T03:02:32;9.55;;;6.68;;
52432;SDS011;38352;53.244;6.594;2023-04-24T03:04:59;8.57;;;5.95;;
52432;SDS011;38352;53.244;6.594;2023-04-24T03:07:25;8.82;;;6.07;;
52432;SDS011;38352;53.244;6.594;2023-04-24T03:09:51;9.57;;;6.15;;
52432;SDS011;38352;53.244;6.594;2023-04-24T03:12:17;9.27;;;6.45;;
52432;SDS011;38352;53.244;6.594;2023-04-24T03:14:43;10.38;;;6.82;;
52432;SDS011;38352;53.244;6.594;2023-04-24T03:17:09;9.63;;;5.93;;
52432;SDS011;38352;53.244;6.594;2023-04-24T03:19:36;10.35;;;6.72;;
52432;SDS011;38352;53.244;6.594;2023-04-24T03:22:02;10.40;;;6.53;;
52432;SDS011;38352;53.244;6.594;2023-04-24T03:24:28;11.93;;;6.97;;
52432;SDS011;38352;53.244;6.594;2023-04-24T03:26:55;10.15;;;6.55;;
52432;SDS011;38352;53.244;6.594;2023-04-24T03:29:22;11.27;;;7.28;;
52432;SDS011;38352;53.244;6.594;2023-04-24T03:31:48;11.55;;;7.45;;
52432;SDS011;38352;53.244;6.594;2023-04-24T03:34:14;12.65;;;7.32;;
52432;SDS011;38352;53.244;6.594;2023-04-24T03:36:40;11.98;;;7.45;;
52432;SDS011;38352;53.244;6.594;2023-04-24T03:39:06;13.63;;;7.78;;
52432;SDS011;38352;53.244;6.594;2023-04-24T03:41:32;13.38;;;8.30;;
52432;SDS011;38352;53.244;6.594;2023-04-24T03:43:58;14.48;;;8.55;;
52432;SDS011;38352;53.244;6.594;2023-04-24T03:46:25;13.35;;;9.10;;
52432;SDS011;38352;53.244;6.594;2023-04-24T03:48:51;14.75;;;8.50;;
52432;SDS011;38352;53.244;6.594;2023-04-24T03:51:17;13.98;;;9.40;;
52432;SDS011;38352;53.244;6.594;2023-04-24T03:53:43;13.40;;;9.63;;
52432;SDS011;38352;53.244;6.594;2023-04-24T03:56:09;15.48;;;10.48;;
52432;SDS011;38352;53.244;6.594;2023-04-24T03:58:35;16.55;;;11.15;;
52432;SDS011;38352;53.244;6.594;2023-04-24T04:01:01;17.92;;;12.02;;
52432;SDS011;38352;53.244;6.594;2023-04-24T04:03:27;18.70;;;12.68;;
52432;SDS011;38352;53.244;6.594;2023-04-24T04:05:53;18.15;;;12.73;;
52432;SDS011;38352;53.244;6.594;2023-04-24T04:08:20;20.48;;;13.27;;
52432;SDS011;38352;53.244;6.594;2023-04-24T04:10:46;20.02;;;13.90;;
52432;SDS011;38352;53.244;6.594;2023-04-24T04:13:12;19.58;;;12.95;;
52432;SDS011;38352;53.244;6.594;2023-04-24T04:15:38;20.95;;;14.65;;
52432;SDS011;38352;53.244;6.594;2023-04-24T04:18:05;19.92;;;14.70;;
52432;SDS011;38352;53.244;6.594;2023-04-24T04:20:31;20.50;;;14.10;;
52432;SDS011;38352;53.244;6.594;2023-04-24T04:22:57;20.52;;;14.10;;
52432;SDS011;38352;53.244;6.594;2023-04-24T04:25:23;18.40;;;12.95;;
52432;SDS011;38352;53.244;6.594;2023-04-24T04:27:49;17.60;;;13.68;;
52432;SDS011;38352;53.244;6.594;2023-04-24T04:30:16;18.58;;;12.48;;
52432;SDS011;38352;53.244;6.594;2023-04-24T04:32:43;17.27;;;12.32;;
52432;SDS011;38352;53.244;6.594;2023-04-24T04:35:09;18.05;;;12.98;;
52432;SDS011;38352;53.244;6.594;2023-04-24T04:37:36;15.98;;;11.95;;
52432;SDS011;38352;53.244;6.594;2023-04-24T04:40:02;15.48;;;11.13;;
52432;SDS011;38352;53.244;6.594;2023-04-24T04:42:31;16.35;;;12.02;;
52432;SDS011;38352;53.244;6.594;2023-04-24T04:44:59;16.95;;;12.63;;
52432;SDS011;38352;53.244;6.594;2023-04-24T04:47:25;17.35;;;12.20;;
52432;SDS011;38352;53.244;6.594;2023-04-24T04:49:53;20.20;;;12.70;;
52432;SDS011;38352;53.244;6.594;2023-04-24T04:52:20;16.20;;;11.32;;
52432;SDS011;38352;53.244;6.594;2023-04-24T04:54:50;15.35;;;11.02;;
52432;SDS011;38352;53.244;6.594;2023-04-24T04:57:16;16.65;;;11.02;;
52432;SDS011;38352;53.244;6.594;2023-04-24T04:59:42;19.80;;;12.55;;
52432;SDS011;38352;53.244;6.594;2023-04-24T05:02:08;15.60;;;10.88;;
52432;SDS011;38352;53.244;6.594;2023-04-24T05:04:34;16.20;;;11.40;;
52432;SDS011;38352;53.244;6.594;2023-04-24T05:07:00;16.92;;;11.52;;
52432;SDS011;38352;53.244;6.594;2023-04-24T05:09:26;19.10;;;11.82;;
52432;SDS011;38352;53.244;6.594;2023-04-24T05:11:54;14.23;;;9.00;;
52432;SDS011;38352;53.244;6.594;2023-04-24T05:14:21;15.85;;;10.77;;
52432;SDS011;38352;53.244;6.594;2023-04-24T05:16:47;14.60;;;7.90;;
52432;SDS011;38352;53.244;6.594;2023-04-24T05:19:13;11.10;;;6.57;;
52432;SDS011;38352;53.244;6.594;2023-04-24T05:21:42;9.32;;;6.00;;
52432;SDS011;38352;53.244;6.594;2023-04-24T05:24:08;10.05;;;6.30;;
52432;SDS011;38352;53.244;6.594;2023-04-24T05:26:35;11.35;;;7.03;;
52432;SDS011;38352;53.244;6.594;2023-04-24T05:29:01;10.70;;;6.22;;
52432;SDS011;38352;53.244;6.594;2023-04-24T05:31:27;12.35;;;6.72;;
52432;SDS011;38352;53.244;6.594;2023-04-24T05:33:54;11.48;;;6.30;;
52432;SDS011;38352;53.244;6.594;2023-04-24T05:36:20;10.27;;;5.90;;
52432;SDS011;38352;53.244;6.594;2023-04-24T05:38:46;9.77;;;6.25;;
52432;SDS011;38352;53.244;6.594;2023-04-24T05:41:12;12.43;;;5.93;;
52432;SDS011;38352;53.244;6.594;2023-04-24T05:43:38;10.02;;;5.45;;
52432;SDS011;38352;53.244;6.594;2023-04-24T05:46:04;11.40;;;6.10;;
52432;SDS011;38352;53.244;6.594;2023-04-24T05:48:30;12.77;;;5.85;;
52432;SDS011;38352;53.244;6.594;2023-04-24T05:50:56;11.38;;;6.93;;
52432;SDS011;38352;53.244;6.594;2023-04-24T05:53:22;12.73;;;7.60;;
52432;SDS011;38352;53.244;6.594;2023-04-24T05:55:48;11.57;;;6.38;;
52432;SDS011;38352;53.244;6.594;2023-04-24T05:58:14;14.18;;;6.25;;
52432;SDS011;38352;53.244;6.594;2023-04-24T06:00:41;10.70;;;5.60;;
52432;SDS011;38352;53.244;6.594;2023-04-24T06:03:09;12.15;;;6.50;;
52432;SDS011;38352;53.244;6.594;2023-04-24T06:05:35;13.20;;;6.65;;
52432;SDS011;38352;53.244;6.594;2023-04-24T06:08:01;13.50;;;7.03;;
52432;SDS011;38352;53.244;6.594;2023-04-24T06:10:28;12.10;;;6.13;;
52432;SDS011;38352;53.244;6.594;2023-04-24T06:12:54;12.23;;;6.28;;
52432;SDS011;38352;53.244;6.594;2023-04-24T06:15:26;13.95;;;6.60;;
52432;SDS011;38352;53.244;6.594;2023-04-24T06:17:52;10.55;;;6.05;;
52432;SDS011;38352;53.244;6.594;2023-04-24T06:20:19;10.73;;;6.18;;
52432;SDS011;38352;53.244;6.594;2023-04-24T06:22:45;13.70;;;7.68;;
52432;SDS011;38352;53.244;6.594;2023-04-24T06:25:11;11.77;;;7.53;;
52432;SDS011;38352;53.244;6.594;2023-04-24T06:27:37;15.57;;;8.73;;
52432;SDS011;38352;53.244;6.594;2023-04-24T06:30:04;15.90;;;8.80;;
52432;SDS011;38352;53.244;6.594;2023-04-24T06:32:30;12.98;;;8.40;;
52432;SDS011;38352;53.244;6.594;2023-04-24T06:34:56;12.52;;;8.00;;
52432;SDS011;38352;53.244;6.594;2023-04-24T06:37:22;15.80;;;8.70;;
52432;SDS011;38352;53.244;6.594;2023-04-24T06:39:49;13.80;;;8.18;;
52432;SDS011;38352;53.244;6.594;2023-04-24T06:42:15;15.25;;;8.35;;
52432;SDS011;38352;53.244;6.594;2023-04-24T06:44:41;14.25;;;7.72;;
52432;SDS011;38352;53.244;6.594;2023-04-24T06:47:08;12.88;;;7.07;;
52432;SDS011;38352;53.244;6.594;2023-04-24T06:49:37;13.25;;;7.20;;
52432;SDS011;38352;53.244;6.594;2023-04-24T06:52:03;13.23;;;8.38;;
52432;SDS011;38352;53.244;6.594;2023-04-24T06:54:30;12.57;;;7.10;;
52432;SDS011;38352;53.244;6.594;2023-04-24T06:56:56;14.07;;;7.85;;
52432;SDS011;38352;53.244;6.594;2023-04-24T06:59:23;11.82;;;7.00;;
52432;SDS011;38352;53.244;6.594;2023-04-24T07:01:49;11.90;;;6.13;;
52432;SDS011;38352;53.244;6.594;2023-04-24T07:04:16;8.23;;;4.50;;
52432;SDS011;38352;53.244;6.594;2023-04-24T07:06:42;7.40;;;3.58;;
52432;SDS011;38352;53.244;6.594;2023-04-24T07:09:08;5.20;;;2.83;;
52432;SDS011;38352;53.244;6.594;2023-04-24T07:11:35;5.50;;;3.05;;
52432;SDS011;38352;53.244;6.594;2023-04-24T07:14:02;6.50;;;3.25;;
52432;SDS011;38352;53.244;6.594;2023-04-24T07:16:29;8.32;;;3.55;;
52432;SDS011;38352;53.244;6.594;2023-04-24T07:18:55;10.35;;;4.10;;
52432;SDS011;38352;53.244;6.594;2023-04-24T07:21:21;7.65;;;3.55;;
52432;SDS011;38352;53.244;6.594;2023-04-24T07:23:47;6.88;;;3.15;;
52432;SDS011;38352;53.244;6.594;2023-04-24T07:26:13;6.90;;;3.08;;
52432;SDS011;38352;53.244;6.594;2023-04-24T07:28:40;5.78;;;3.58;;
52432;SDS011;38352;53.244;6.594;2023-04-24T07:31:06;5.32;;;3.40;;
52432;SDS011;38352;53.244;6.594;2023-04-24T07:33:32;6.13;;;2.92;;
52432;SDS011;38352;53.244;6.594;2023-04-24T07:35:59;5.72;;;3.22;;
52432;SDS011;38352;53.244;6.594;2023-04-24T07:38:25;7.53;;;4.10;;
52432;SDS011;38352;53.244;6.594;2023-04-24T07:40:51;7.60;;;4.38;;
52432;SDS011;38352;53.244;6.594;2023-04-24T07:43:19;9.82;;;5.00;;
52432;SDS011;38352;53.244;6.594;2023-04-24T07:45:46;9.85;;;4.20;;
52432;SDS011;38352;53.244;6.594;2023-04-24T07:48:12;9.85;;;5.40;;
52432;SDS011;38352;53.244;6.594;2023-04-24T07:50:41;8.48;;;4.53;;
52432;SDS011;38352;53.244;6.594;2023-04-24T07:53:07;7.13;;;3.38;;
52432;SDS011;38352;53.244;6.594;2023-04-24T07:55:33;7.35;;;3.75;;
52432;SDS011;38352;53.244;6.594;2023-04-24T07:57:59;11.50;;;4.50;;
52432;SDS011;38352;53.244;6.594;2023-04-24T08:00:25;7.53;;;4.85;;
52432;SDS011;38352;53.244;6.594;2023-04-24T08:02:51;15.38;;;7.53;;
52432;SDS011;38352;53.244;6.594;2023-04-24T08:05:17;15.02;;;8.63;;
52432;SDS011;38352;53.244;6.594;2023-04-24T08:07:45;14.88;;;7.80;;
52432;SDS011;38352;53.244;6.594;2023-04-24T08:10:13;12.07;;;8.23;;
52432;SDS011;38352;53.244;6.594;2023-04-24T08:12:40;16.98;;;8.60;;
52432;SDS011;38352;53.244;6.594;2023-04-24T08:15:06;19.15;;;9.80;;
52432;SDS011;38352;53.244;6.594;2023-04-24T08:17:33;18.63;;;10.40;;
52432;SDS011;38352;53.244;6.594;2023-04-24T08:19:59;21.20;;;12.82;;
52432;SDS011;38352;53.244;6.594;2023-04-24T08:22:29;27.10;;;15.75;;
52432;SDS011;38352;53.244;6.594;2023-04-24T08:24:55;27.70;;;14.02;;
52432;SDS011;38352;53.244;6.594;2023-04-24T08:27:22;27.23;;;12.85;;
52432;SDS011;38352;53.244;6.594;2023-04-24T08:29:48;23.88;;;12.90;;
52432;SDS011;38352;53.244;6.594;2023-04-24T08:32:15;22.70;;;12.70;;
52432;SDS011;38352;53.244;6.594;2023-04-24T08:34:41;23.85;;;11.80;;
52432;SDS011;38352;53.244;6.594;2023-04-24T08:37:07;23.02;;;12.05;;
52432;SDS011;38352;53.244;6.594;2023-04-24T08:39:33;22.67;;;13.57;;
52432;SDS011;38352;53.244;6.594;2023-04-24T08:41:59;20.98;;;11.65;;
52432;SDS011;38352;53.244;6.594;2023-04-24T08:44:31;21.42;;;13.25;;
52432;SDS011;38352;53.244;6.594;2023-04-24T08:46:58;26.05;;;13.32;;
52432;SDS011;38352;53.244;6.594;2023-04-24T08:49:24;24.40;;;13.20;;
52432;SDS011;38352;53.244;6.594;2023-04-24T08:51:52;25.25;;;12.75;;
52432;SDS011;38352;53.244;6.594;2023-04-24T08:54:18;25.75;;;11.70;;
52432;SDS011;38352;53.244;6.594;2023-04-24T08:56:44;26.42;;;13.07;;
52432;SDS011;38352;53.244;6.594;2023-04-24T08:59:14;21.60;;;12.52;;
52432;SDS011;38352;53.244;6.594;2023-04-24T09:01:40;26.20;;;13.63;;
52432;SDS011;38352;53.244;6.594;2023-04-24T09:04:07;20.70;;;11.55;;
52432;SDS011;38352;53.244;6.594;2023-04-24T09:06:37;21.42;;;12.70;;
52432;SDS011;38352;53.244;6.594;2023-04-24T09:09:04;20.33;;;11.65;;
52432;SDS011;38352;53.244;6.594;2023-04-24T09:11:33;21.70;;;12.35;;
52432;SDS011;38352;53.244;6.594;2023-04-24T09:14:00;25.50;;;13.70;;
52432;SDS011;38352;53.244;6.594;2023-04-24T09:16:26;22.92;;;13.00;;
52432;SDS011;38352;53.244;6.594;2023-04-24T09:18:53;21.13;;;10.77;;
52432;SDS011;38352;53.244;6.594;2023-04-24T09:21:20;22.17;;;12.20;;
52432;SDS011;38352;53.244;6.594;2023-04-24T09:23:47;20.02;;;11.00;;
52432;SDS011;38352;53.244;6.594;2023-04-24T09:26:23;21.15;;;10.38;;
52432;SDS011;38352;53.244;6.594;2023-04-24T09:28:50;20.27;;;10.55;;
52432;SDS011;38352;53.244;6.594;2023-04-24T09:31:18;21.70;;;10.30;;
52432;SDS011;38352;53.244;6.594;2023-04-24T09:34:03;19.98;;;11.23;;
52432;SDS011;38352;53.244;6.594;2023-04-24T09:36:34;18.52;;;10.55;;
52432;SDS011;38352;53.244;6.594;2023-04-24T09:39:08;13.35;;;7.80;;
52432;SDS011;38352;53.244;6.594;2023-04-24T09:41:43;19.52;;;9.38;;
52432;SDS011;38352;53.244;6.594;2023-04-24T09:44:13;14.50;;;7.70;;
52432;SDS011;38352;53.244;6.594;2023-04-24T09:46:40;18.25;;;8.63;;
52432;SDS011;38352;53.244;6.594;2023-04-24T09:49:07;13.07;;;8.45;;
52432;SDS011;38352;53.244;6.594;2023-04-24T09:51:35;21.67;;;9.18;;
52432;SDS011;38352;53.244;6.594;2023-04-24T09:54:02;16.20;;;8.38;;
52432;SDS011;38352;53.244;6.594;2023-04-24T09:56:29;21.88;;;7.88;;
52432;SDS011;38352;53.244;6.594;2023-04-24T09:59:07;20.63;;;8.80;;
52432;SDS011;38352;53.244;6.594;2023-04-24T10:01:33;15.65;;;7.40;;
52432;SDS011;38352;53.244;6.594;2023-04-24T10:03:59;16.33;;;7.75;;
52432;SDS011;38352;53.244;6.594;2023-04-24T10:06:35;14.13;;;6.97;;
52432;SDS011;38352;53.244;6.594;2023-04-24T10:09:02;18.77;;;7.10;;
52432;SDS011;38352;53.244;6.594;2023-04-24T10:11:28;13.45;;;6.00;;
52432;SDS011;38352;53.244;6.594;2023-04-24T10:13:58;13.77;;;6.30;;
52432;SDS011;38352;53.244;6.594;2023-04-24T10:16:24;19.60;;;6.60;;
52432;SDS011;38352;53.244;6.594;2023-04-24T10:18:52;11.68;;;4.53;;
52432;SDS011;38352;53.244;6.594;2023-04-24T10:21:18;8.75;;;4.85;;
52432;SDS011;38352;53.244;6.594;2023-04-24T10:23:44;9.63;;;4.68;;
52432;SDS011;38352;53.244;6.594;2023-04-24T10:26:14;11.45;;;3.92;;
52432;SDS011;38352;53.244;6.594;2023-04-24T10:28:46;8.60;;;3.45;;
52432;SDS011;38352;53.244;6.594;2023-04-24T10:31:12;8.30;;;3.72;;
52432;SDS011;38352;53.244;6.594;2023-04-24T10:33:39;11.02;;;4.15;;
52432;SDS011;38352;53.244;6.594;2023-04-24T10:36:08;9.27;;;3.78;;
52432;SDS011;38352;53.244;6.594;2023-04-24T10:38:35;8.95;;;3.92;;
52432;SDS011;38352;53.244;6.594;2023-04-24T10:41:09;8.95;;;4.10;;
52432;SDS011;38352;53.244;6.594;2023-04-24T10:43:41;9.13;;;3.67;;
52432;SDS011;38352;53.244;6.594;2023-04-24T10:46:07;8.10;;;3.50;;
52432;SDS011;38352;53.244;6.594;2023-04-24T10:48:35;11.43;;;3.95;;
52432;SDS011;38352;53.244;6.594;2023-04-24T10:51:01;8.55;;;3.88;;
52432;SDS011;38352;53.244;6.594;2023-04-24T10:53:29;12.32;;;3.47;;
52432;SDS011;38352;53.244;6.594;2023-04-24T10:56:08;6.55;;;2.70;;
52432;SDS011;38352;53.244;6.594;2023-04-24T10:58:36;7.18;;;2.40;;
52432;SDS011;38352;53.244;6.594;2023-04-24T11:01:03;8.52;;;3.40;;
52432;SDS011;38352;53.244;6.594;2023-04-24T11:03:30;8.98;;;3.45;;
52432;SDS011;38352;53.244;6.594;2023-04-24T11:08:26;9.40;;;3.28;;
52432;SDS011;38352;53.244;6.594;2023-04-24T11:10:56;13.80;;;3.08;;
52432;SDS011;38352;53.244;6.594;2023-04-24T11:13:24;7.20;;;3.22;;
52432;SDS011;38352;53.244;6.594;2023-04-24T11:18:38;6.75;;;2.65;;
52432;SDS011;38352;53.244;6.594;2023-04-24T11:21:11;7.07;;;2.92;;
52432;SDS011;38352;53.244;6.594;2023-04-24T11:23:38;5.97;;;2.67;;
52432;SDS011;38352;53.244;6.594;2023-04-24T11:26:38;4.97;;;2.28;;
52432;SDS011;38352;53.244;6.594;2023-04-24T11:29:05;10.15;;;2.80;;
52432;SDS011;38352;53.244;6.594;2023-04-24T11:31:36;8.43;;;3.03;;
52432;SDS011;38352;53.244;6.594;2023-04-24T11:34:06;6.95;;;2.20;;
52432;SDS011;38352;53.244;6.594;2023-04-24T11:36:32;5.97;;;2.38;;
52432;SDS011;38352;53.244;6.594;2023-04-24T11:38:59;6.18;;;2.50;;
52432;SDS011;38352;53.244;6.594;2023-04-24T11:41:25;6.25;;;2.38;;
52432;SDS011;38352;53.244;6.594;2023-04-24T11:43:52;6.90;;;2.63;;
52432;SDS011;38352;53.244;6.594;2023-04-24T11:46:20;11.20;;;3.28;;
52432;SDS011;38352;53.244;6.594;2023-04-24T11:48:46;10.18;;;2.85;;
52432;SDS011;38352;53.244;6.594;2023-04-24T11:51:13;6.78;;;2.15;;
52432;SDS011;38352;53.244;6.594;2023-04-24T11:53:39;6.30;;;2.67;;
52432;SDS011;38352;53.244;6.594;2023-04-24T11:56:05;7.00;;;2.70;;
52432;SDS011;38352;53.244;6.594;2023-04-24T11:58:35;7.30;;;2.30;;
52432;SDS011;38352;53.244;6.594;2023-04-24T12:01:01;8.48;;;2.50;;
52432;SDS011;38352;53.244;6.594;2023-04-24T12:03:27;8.18;;;2.20;;
52432;SDS011;38352;53.244;6.594;2023-04-24T12:06:04;11.70;;;2.97;;
52432;SDS011;38352;53.244;6.594;2023-04-24T12:08:31;10.25;;;2.65;;
52432;SDS011;38352;53.244;6.594;2023-04-24T12:10:57;8.48;;;2.08;;
52432;SDS011;38352;53.244;6.594;2023-04-24T12:13:25;6.72;;;2.15;;
52432;SDS011;38352;53.244;6.594;2023-04-24T12:15:51;6.47;;;2.42;;
52432;SDS011;38352;53.244;6.594;2023-04-24T12:18:17;7.85;;;2.35;;
52432;SDS011;38352;53.244;6.594;2023-04-24T12:20:43;6.70;;;2.20;;
52432;SDS011;38352;53.244;6.594;2023-04-24T12:23:09;3.75;;;1.70;;
52432;SDS011;38352;53.244;6.594;2023-04-24T12:25:35;6.07;;;2.30;;
52432;SDS011;38352;53.244;6.594;2023-04-24T12:30:32;5.05;;;1.63;;
52432;SDS011;38352;53.244;6.594;2023-04-24T12:32:58;5.63;;;2.17;;
52432;SDS011;38352;53.244;6.594;2023-04-24T12:35:26;6.25;;;1.65;;
52432;SDS011;38352;53.244;6.594;2023-04-24T12:37:52;5.72;;;1.50;;
52432;SDS011;38352;53.244;6.594;2023-04-24T12:40:19;5.60;;;1.33;;
52432;SDS011;38352;53.244;6.594;2023-04-24T12:42:47;2.40;;;1.40;;
52432;SDS011;38352;53.244;6.594;2023-04-24T12:45:14;6.30;;;1.40;;
52432;SDS011;38352;53.244;6.594;2023-04-24T12:47:41;6.60;;;1.75;;
52432;SDS011;38352;53.244;6.594;2023-04-24T12:50:08;4.47;;;1.30;;
52432;SDS011;38352;53.244;6.594;2023-04-24T12:52:35;6.70;;;1.30;;
52432;SDS011;38352;53.244;6.594;2023-04-24T12:55:01;5.38;;;1.13;;
52432;SDS011;38352;53.244;6.594;2023-04-24T12:57:28;4.47;;;1.67;;
52432;SDS011;38352;53.244;6.594;2023-04-24T12:59:55;5.75;;;1.20;;
52432;SDS011;38352;53.244;6.594;2023-04-24T13:02:22;4.55;;;1.52;;
52432;SDS011;38352;53.244;6.594;2023-04-24T13:04:48;4.25;;;1.33;;
52432;SDS011;38352;53.244;6.594;2023-04-24T13:07:15;6.50;;;1.58;;
52432;SDS011;38352;53.244;6.594;2023-04-24T13:09:42;3.88;;;1.30;;
52432;SDS011;38352;53.244;6.594;2023-04-24T13:12:08;3.20;;;1.40;;
52432;SDS011;38352;53.244;6.594;2023-04-24T13:14:35;5.63;;;1.50;;
52432;SDS011;38352;53.244;6.594;2023-04-24T13:17:01;5.20;;;1.70;;
52432;SDS011;38352;53.244;6.594;2023-04-24T13:19:28;6.95;;;1.60;;
52432;SDS011;38352;53.244;6.594;2023-04-24T13:21:54;5.15;;;1.85;;
52432;SDS011;38352;53.244;6.594;2023-04-24T13:24:24;9.18;;;2.60;;
52432;SDS011;38352;53.244;6.594;2023-04-24T13:26:51;5.95;;;1.80;;
52432;SDS011;38352;53.244;6.594;2023-04-24T13:29:17;4.13;;;1.33;;
52432;SDS011;38352;53.244;6.594;2023-04-24T13:31:44;5.65;;;1.35;;
52432;SDS011;38352;53.244;6.594;2023-04-24T13:34:10;3.45;;;1.10;;
52432;SDS011;38352;53.244;6.594;2023-04-24T13:36:36;4.53;;;1.25;;
52432;SDS011;38352;53.244;6.594;2023-04-24T13:39:02;4.93;;;1.20;;
52432;SDS011;38352;53.244;6.594;2023-04-24T13:41:29;6.13;;;1.20;;
52432;SDS011;38352;53.244;6.594;2023-04-24T13:43:55;4.90;;;1.50;;
52432;SDS011;38352;53.244;6.594;2023-04-24T13:46:21;4.75;;;1.10;;
52432;SDS011;38352;53.244;6.594;2023-04-24T13:48:48;5.75;;;1.02;;
52432;SDS011;38352;53.244;6.594;2023-04-24T13:51:14;5.75;;;1.10;;
52432;SDS011;38352;53.244;6.594;2023-04-24T13:53:40;3.67;;;1.00;;
52432;SDS011;38352;53.244;6.594;2023-04-24T13:56:06;3.20;;;1.10;;
52432;SDS011;38352;53.244;6.594;2023-04-24T13:58:33;3.38;;;0.98;;
52432;SDS011;38352;53.244;6.594;2023-04-24T14:00:59;7.13;;;1.33;;
52432;SDS011;38352;53.244;6.594;2023-04-24T14:03:25;3.40;;;1.08;;
52432;SDS011;38352;53.244;6.594;2023-04-24T14:05:51;5.70;;;1.67;;
52432;SDS011;38352;53.244;6.594;2023-04-24T14:08:18;4.85;;;1.60;;
52432;SDS011;38352;53.244;6.594;2023-04-24T14:10:44;8.23;;;2.47;;
52432;SDS011;38352;53.244;6.594;2023-04-24T14:13:10;5.95;;;2.15;;
52432;SDS011;38352;53.244;6.594;2023-04-24T14:15:36;8.52;;;2.65;;
52432;SDS011;38352;53.244;6.594;2023-04-24T14:18:02;5.35;;;2.67;;
52432;SDS011;38352;53.244;6.594;2023-04-24T14:20:28;9.50;;;2.72;;
52432;SDS011;38352;53.244;6.594;2023-04-24T14:22:55;7.75;;;2.70;;
52432;SDS011;38352;53.244;6.594;2023-04-24T14:25:24;7.75;;;2.03;;
52432;SDS011;38352;53.244;6.594;2023-04-24T14:27:50;9.18;;;3.15;;
52432;SDS011;38352;53.244;6.594;2023-04-24T14:30:17;6.82;;;2.10;;
52432;SDS011;38352;53.244;6.594;2023-04-24T14:32:43;10.40;;;2.90;;
52432;SDS011;38352;53.244;6.594;2023-04-24T14:35:09;7.63;;;2.58;;
52432;SDS011;38352;53.244;6.594;2023-04-24T14:37:35;8.05;;;2.35;;
52432;SDS011;38352;53.244;6.594;2023-04-24T14:40:02;6.60;;;2.78;;
52432;SDS011;38352;53.244;6.594;2023-04-24T14:42:31;8.68;;;3.13;;
52432;SDS011;38352;53.244;6.594;2023-04-24T14:44:57;7.95;;;2.80;;